MDLR/LRM METAR and TAF weather

Enter ICAO airport designator
Station Type Date Time Source
MDLR METAR 2019/07/20 03:00 UTC NOAA

MDLR 200300Z 00000KT 9999 SCT016 SCT300 25/25 Q1016


Station Type Date Time Source
MDLR Decoded METAR 2019/07/20 03:00 UTC NOAA

La Romana International Airport, Dominican Republic (MDLR) 18-25N 068-57W
Jul 19, 2019 - 11:00 PM EDT / 2019.07.20 0300 UTC
Wind: Calm:0
Visibility: greater than 7 mile(s):0
Sky conditions: partly cloudy
Temperature: 77 F (25 C)
Dew Point: 77 F (25 C)
Relative Humidity: 100%
Pressure (altimeter): 30.00 in. Hg (1016 hPa)
ob: MDLR 200300Z 00000KT 9999 SCT016 SCT300 25/25 Q1016
cycle: 3

Station Type Date Time Source
MDLR TAF 2019/07/20 06:26 UTC NOAA

TAF MDLR 200400Z 2006/2106 00000KT 9999 SCT018
BECMG 2014/2016 11012KT PROB30 2018/2100 7000 -TSRA BKN016

Example: see airport list